createdAt,value
2018-09-22T00:01:29.621Z,12.59
2018-09-22T00:03:58.043Z,12.74
2018-09-22T00:06:27.013Z,12.73
2018-09-22T00:08:55.357Z,12.72
2018-09-22T00:11:24.115Z,12.71
2018-09-22T00:13:52.608Z,12.74
2018-09-22T00:16:21.041Z,12.68
2018-09-22T00:18:49.156Z,12.64
2018-09-22T00:21:17.586Z,12.60
2018-09-22T00:23:46.131Z,12.59
2018-09-22T00:26:14.926Z,12.60
2018-09-22T00:28:43.699Z,12.62
2018-09-22T00:31:12.105Z,12.61
2018-09-22T00:33:40.991Z,12.56
2018-09-22T00:36:09.462Z,12.59
2018-09-22T00:38:37.569Z,12.64
2018-09-22T00:41:06.522Z,12.62
2018-09-22T00:43:35.088Z,12.62
2018-09-22T00:46:03.985Z,12.46
2018-09-22T00:48:33.278Z,12.54
2018-09-22T00:51:01.942Z,12.42
2018-09-22T00:53:30.051Z,12.37
2018-09-22T00:55:58.982Z,12.40
2018-09-22T00:58:27.410Z,12.39
2018-09-22T01:00:55.750Z,12.34
2018-09-22T01:03:24.590Z,12.32
2018-09-22T01:05:53.178Z,12.32
2018-09-22T01:08:21.734Z,12.30
2018-09-22T01:10:51.101Z,12.24
2018-09-22T01:13:19.583Z,12.18
2018-09-22T01:15:47.930Z,12.14
2018-09-22T01:18:16.573Z,12.18
2018-09-22T01:20:45.078Z,12.17
2018-09-22T01:23:13.453Z,12.16
2018-09-22T01:25:42.428Z,12.15
2018-09-22T01:28:10.552Z,12.15
2018-09-22T01:30:39.188Z,12.14
2018-09-22T01:33:08.163Z,12.17
2018-09-22T01:35:36.719Z,12.17
2018-09-22T01:38:05.570Z,12.13
2018-09-22T01:40:34.024Z,12.01
2018-09-22T01:43:02.175Z,12.12
2018-09-22T01:45:30.607Z,12.07
2018-09-22T01:47:59.184Z,11.96
2018-09-22T01:50:27.306Z,12.09
2018-09-22T01:52:55.403Z,12.10
2018-09-22T01:55:23.798Z,12.08
2018-09-22T01:57:52.259Z,12.06
2018-09-22T02:00:20.959Z,12.08
2018-09-22T02:02:49.590Z,12.13
2018-09-22T02:05:17.724Z,12.14
2018-09-22T02:07:46.147Z,12.01
2018-09-22T02:10:14.290Z,12.12
2018-09-22T02:12:42.763Z,12.13
2018-09-22T02:15:11.634Z,12.12
2018-09-22T02:17:40.327Z,12.13
2018-09-22T02:20:08.456Z,12.14
2018-09-22T02:22:37.310Z,12.13
2018-09-22T02:25:06.072Z,12.18
2018-09-22T02:27:34.385Z,12.19
2018-09-22T02:30:02.578Z,12.18
2018-09-22T02:32:31.279Z,12.20
2018-09-22T02:34:59.648Z,12.18
2018-09-22T02:37:28.547Z,12.18
2018-09-22T02:39:56.847Z,12.18
2018-09-22T02:42:25.369Z,12.17
2018-09-22T02:44:53.791Z,12.20
2018-09-22T02:47:22.177Z,12.17
2018-09-22T02:49:50.793Z,12.18
2018-09-22T02:52:19.451Z,12.15
2018-09-22T02:54:48.016Z,12.12
2018-09-22T02:57:16.391Z,12.14
2018-09-22T02:59:44.576Z,12.15
2018-09-22T03:02:12.979Z,12.16
2018-09-22T03:04:41.394Z,12.18
2018-09-22T03:07:10.299Z,12.17
2018-09-22T03:09:38.742Z,12.16
2018-09-22T03:12:07.386Z,12.18
2018-09-22T03:14:36.000Z,11.94
2018-09-22T03:17:04.456Z,12.13
2018-09-22T03:19:32.578Z,12.10
2018-09-22T03:22:01.207Z,11.94
2018-09-22T03:24:29.762Z,12.07
2018-09-22T03:26:59.614Z,12.09
2018-09-22T03:29:29.431Z,12.09
2018-09-22T03:31:58.809Z,11.85
2018-09-22T03:34:28.774Z,12.06
2018-09-22T03:36:57.588Z,12.04
2018-09-22T03:39:26.091Z,11.89
2018-09-22T03:41:55.030Z,11.95
2018-09-22T03:44:23.171Z,11.95
2018-09-22T03:46:51.479Z,11.94
2018-09-22T03:49:20.738Z,11.94
2018-09-22T03:51:48.916Z,11.91
2018-09-22T03:54:17.697Z,11.91
2018-09-22T03:56:47.671Z,11.91
2018-09-22T03:59:16.179Z,11.89
2018-09-22T04:01:45.057Z,11.89
2018-09-22T04:04:13.784Z,11.89
2018-09-22T04:06:42.445Z,11.88
2018-09-22T04:09:10.722Z,11.87
2018-09-22T04:11:40.340Z,11.85
2018-09-22T04:14:09.432Z,11.72
2018-09-22T04:16:38.425Z,11.82
2018-09-22T04:19:07.728Z,11.80
2018-09-22T04:21:36.771Z,11.80
2018-09-22T04:24:16.327Z,11.79
2018-09-22T04:26:45.823Z,11.78
2018-09-22T04:29:14.368Z,11.76
2018-09-22T04:31:43.399Z,11.75
2018-09-22T04:34:12.537Z,11.72
2018-09-22T04:36:43.465Z,11.71
2018-09-22T04:39:13.745Z,11.72
2018-09-22T04:41:43.832Z,11.67
2018-09-22T04:44:12.502Z,11.66
2018-09-22T04:46:40.992Z,11.68
2018-09-22T04:49:10.167Z,11.68
2018-09-22T04:51:39.113Z,11.68
2018-09-22T04:54:08.129Z,11.68
2018-09-22T04:56:38.270Z,11.69
2018-09-22T04:59:06.611Z,11.75
2018-09-22T05:01:35.048Z,11.80
2018-09-22T05:04:04.378Z,11.87
2018-09-22T05:06:33.442Z,11.94
2018-09-22T05:09:02.218Z,12.00
2018-09-22T05:11:31.011Z,12.04
2018-09-22T05:13:59.603Z,12.07
2018-09-22T05:16:28.268Z,12.12
2018-09-22T05:18:56.763Z,12.16
2018-09-22T05:21:24.916Z,12.21
2018-09-22T05:23:53.214Z,12.23
2018-09-22T05:26:21.888Z,12.19
2018-09-22T05:28:50.427Z,12.33
2018-09-22T05:31:21.390Z,12.31
2018-09-22T05:33:51.946Z,12.20
2018-09-22T05:36:21.227Z,12.30
2018-09-22T05:38:49.680Z,12.27
2018-09-22T05:41:19.084Z,12.12
2018-09-22T05:43:47.674Z,12.23
2018-09-22T05:46:15.831Z,12.20
2018-09-22T05:48:46.393Z,12.21
2018-09-22T05:51:15.197Z,12.24
2018-09-22T05:53:43.638Z,12.14
2018-09-22T05:56:11.865Z,12.26
2018-09-22T05:58:40.331Z,12.30
2018-09-22T06:01:08.577Z,12.31
2018-09-22T06:03:37.155Z,12.30
2018-09-22T06:06:05.357Z,12.30
2018-09-22T06:08:33.947Z,12.30
2018-09-22T06:11:04.567Z,12.32
2018-09-22T06:13:32.986Z,12.39
2018-09-22T06:16:02.904Z,12.49
2018-09-22T06:18:32.995Z,12.58
2018-09-22T06:21:02.839Z,12.65
2018-09-22T06:23:31.856Z,12.71
2018-09-22T06:26:00.019Z,12.79
2018-09-22T06:28:28.356Z,12.61
2018-09-22T06:30:57.328Z,12.43
2018-09-22T06:33:25.658Z,12.93
2018-09-22T06:35:53.931Z,12.94
2018-09-22T06:38:22.748Z,12.99
2018-09-22T06:40:51.071Z,12.96
2018-09-22T06:43:19.770Z,13.02
2018-09-22T06:45:47.988Z,13.20
2018-09-22T06:48:16.199Z,13.27
2018-09-22T06:50:44.961Z,13.32
2018-09-22T06:53:14.504Z,13.25
2018-09-22T06:55:43.796Z,13.26
2018-09-22T06:58:13.024Z,13.59
2018-09-22T07:00:41.673Z,13.72
2018-09-22T07:03:11.348Z,13.68
2018-09-22T07:05:40.138Z,13.84
2018-09-22T07:08:09.918Z,13.58
2018-09-22T07:10:41.967Z,13.81
2018-09-22T07:13:13.529Z,13.82
2018-09-22T07:15:43.946Z,13.92
2018-09-22T07:18:15.295Z,13.81
2018-09-22T07:20:50.451Z,13.81
2018-09-22T07:23:19.538Z,13.98
2018-09-22T07:25:48.081Z,14.10
2018-09-22T07:28:18.516Z,14.12
2018-09-22T07:30:47.017Z,14.31
2018-09-22T07:33:15.612Z,14.37
2018-09-22T07:35:44.215Z,14.45
2018-09-22T07:38:14.328Z,14.48
2018-09-22T07:40:44.425Z,14.54
2018-09-22T07:43:13.038Z,14.60
2018-09-22T07:45:41.315Z,14.70
2018-09-22T07:48:17.610Z,14.80
2018-09-22T07:50:45.987Z,14.56
2018-09-22T07:53:15.543Z,14.88
2018-09-22T07:55:43.730Z,14.41
2018-09-22T07:58:13.904Z,14.64
2018-09-22T08:00:42.756Z,14.97
2018-09-22T08:03:11.968Z,14.99
2018-09-22T08:05:41.951Z,15.03
2018-09-22T08:08:11.932Z,15.07
2018-09-22T08:10:40.261Z,15.03
2018-09-22T08:13:09.451Z,15.18
2018-09-22T08:15:38.044Z,15.26
2018-09-22T08:18:06.103Z,15.33
2018-09-22T08:20:35.017Z,15.42
2018-09-22T08:23:03.642Z,15.53
2018-09-22T08:25:38.329Z,15.64
2018-09-22T08:28:08.441Z,15.73
2018-09-22T08:30:43.564Z,15.83
2018-09-22T08:33:13.063Z,15.65
2018-09-22T08:35:42.038Z,15.70
2018-09-22T08:38:10.487Z,16.09
2018-09-22T08:40:38.799Z,16.23
2018-09-22T08:43:08.584Z,16.36
2018-09-22T08:45:44.725Z,16.42
2018-09-22T08:48:13.655Z,16.44
2018-09-22T08:50:50.509Z,16.51
2018-09-22T08:53:19.802Z,16.59
2018-09-22T08:55:48.354Z,16.55
2018-09-22T08:58:17.091Z,16.59
2018-09-22T09:00:45.676Z,16.68
2018-09-22T09:03:14.071Z,16.73
2018-09-22T09:05:43.678Z,16.59
2018-09-22T09:08:12.355Z,16.88
2018-09-22T09:10:45.824Z,17.05
2018-09-22T09:13:15.506Z,16.96
2018-09-22T09:15:44.220Z,16.62
2018-09-22T09:18:12.729Z,17.34
2018-09-22T09:20:40.965Z,17.47
2018-09-22T09:23:10.213Z,17.60
2018-09-22T09:25:38.643Z,17.71
2018-09-22T09:28:09.267Z,17.82
2018-09-22T09:30:38.168Z,17.95
2018-09-22T09:33:08.046Z,17.93
2018-09-22T09:35:36.444Z,17.88
2018-09-22T09:38:05.140Z,17.93
2018-09-22T09:40:35.828Z,17.89
2018-09-22T09:43:04.877Z,17.85
2018-09-22T09:45:33.587Z,17.91
2018-09-22T09:48:06.075Z,18.12
2018-09-22T09:50:36.586Z,18.42
2018-09-22T09:53:05.063Z,18.74
2018-09-22T09:55:33.900Z,19.02
2018-09-22T09:58:02.928Z,18.58
2018-09-22T10:00:38.210Z,18.79
2018-09-22T10:03:07.195Z,18.60
2018-09-22T10:05:37.946Z,18.60
2018-09-22T10:08:08.087Z,18.59
2018-09-22T10:10:38.379Z,18.77
2018-09-22T10:13:08.843Z,18.73
2018-09-22T10:15:40.214Z,18.80
2018-09-22T10:18:14.086Z,18.92
2018-09-22T10:20:44.187Z,18.83
2018-09-22T10:23:12.670Z,18.63
2018-09-22T10:25:42.140Z,18.47
2018-09-22T10:28:11.064Z,18.52
2018-09-22T10:30:41.087Z,18.58
2018-09-22T10:33:12.149Z,18.54
2018-09-22T10:35:43.679Z,18.82
2018-09-22T10:38:11.998Z,18.87
2018-09-22T10:40:44.199Z,18.92
2018-09-22T10:43:13.464Z,18.86
2018-09-22T10:45:41.931Z,18.82
2018-09-22T10:48:13.658Z,18.93
2018-09-22T10:50:42.306Z,19.20
2018-09-22T10:53:12.317Z,19.34
2018-09-22T10:55:41.770Z,19.38
2018-09-22T10:58:10.979Z,19.26
2018-09-22T11:00:40.349Z,18.89
2018-09-22T11:03:09.516Z,18.84
2018-09-22T11:05:39.219Z,18.81
2018-09-22T11:08:12.233Z,18.81
2018-09-22T11:10:43.331Z,18.41
2018-09-22T11:13:13.762Z,18.80
2018-09-22T11:15:42.559Z,18.74
2018-09-22T11:18:11.164Z,18.95
2018-09-22T11:20:40.416Z,19.14
2018-09-22T11:23:09.240Z,19.22
2018-09-22T11:25:38.239Z,19.31
2018-09-22T11:28:08.258Z,19.52
2018-09-22T11:30:36.613Z,19.42
2018-09-22T11:33:06.583Z,19.65
2018-09-22T11:35:34.880Z,19.59
2018-09-22T11:38:07.875Z,19.50
2018-09-22T11:40:37.271Z,19.28
2018-09-22T11:43:07.875Z,19.19
2018-09-22T11:45:36.440Z,19.18
2018-09-22T11:48:05.785Z,18.64
2018-09-22T11:50:34.471Z,18.84
2018-09-22T11:53:03.893Z,19.13
2018-09-22T11:55:35.848Z,19.04
2018-09-22T11:58:05.844Z,19.13
2018-09-22T12:00:35.488Z,18.64
2018-09-22T12:03:04.957Z,19.24
2018-09-22T12:05:34.087Z,19.18
2018-09-22T12:08:03.122Z,19.13
2018-09-22T12:10:37.203Z,19.11
2018-09-22T12:13:06.887Z,19.10
2018-09-22T12:15:35.429Z,19.07
2018-09-22T12:18:04.408Z,19.10
2018-09-22T12:20:33.086Z,19.27
2018-09-22T12:23:02.070Z,19.42
2018-09-22T12:25:31.347Z,19.42
2018-09-22T12:27:59.621Z,19.53
2018-09-22T12:30:28.338Z,19.57
2018-09-22T12:33:01.402Z,19.53
2018-09-22T12:35:30.910Z,19.43
2018-09-22T12:38:00.564Z,19.43
2018-09-22T12:40:29.575Z,19.48
2018-09-22T12:42:59.091Z,19.57
2018-09-22T12:45:27.977Z,19.58
2018-09-22T12:47:57.574Z,19.46
2018-09-22T12:50:25.973Z,19.51
2018-09-22T12:52:55.040Z,19.19
2018-09-22T12:55:24.353Z,19.68
2018-09-22T12:57:54.077Z,19.43
2018-09-22T13:00:23.295Z,19.38
2018-09-22T13:02:51.842Z,19.69
2018-09-22T13:05:20.139Z,19.60
2018-09-22T13:07:50.031Z,18.63
2018-09-22T13:10:19.108Z,19.12
2018-09-22T13:12:47.275Z,19.35
2018-09-22T13:15:15.944Z,19.20
2018-09-22T13:17:44.921Z,19.11
2018-09-22T13:20:13.251Z,19.08
2018-09-22T13:22:41.852Z,19.06
2018-09-22T13:25:10.166Z,19.09
2018-09-22T13:27:39.010Z,18.85
2018-09-22T13:30:07.715Z,19.14
2018-09-22T13:32:36.341Z,19.13
2018-09-22T13:35:05.275Z,19.13
2018-09-22T13:37:33.512Z,19.11
2018-09-22T13:40:02.294Z,19.08
2018-09-22T13:42:30.823Z,19.08
2018-09-22T13:44:59.178Z,18.99
2018-09-22T13:47:28.720Z,18.91
2018-09-22T13:49:58.213Z,18.89
2018-09-22T13:52:28.265Z,18.87
2018-09-22T13:54:58.159Z,18.83
2018-09-22T13:57:26.411Z,18.52
2018-09-22T13:59:55.343Z,18.73
2018-09-22T14:02:24.164Z,18.74
2018-09-22T14:04:53.266Z,18.73
2018-09-22T14:07:22.169Z,18.59
2018-09-22T14:09:50.990Z,18.61
2018-09-22T14:12:19.274Z,18.62
2018-09-22T14:14:47.491Z,18.60
2018-09-22T14:17:15.858Z,18.54
2018-09-22T14:19:44.696Z,18.53
2018-09-22T14:22:13.180Z,18.53
2018-09-22T14:24:41.959Z,18.51
2018-09-22T14:27:10.781Z,18.21
2018-09-22T14:29:39.088Z,18.41
2018-09-22T14:32:07.695Z,18.39
2018-09-22T14:34:35.949Z,18.33
2018-09-22T14:37:04.841Z,18.27
2018-09-22T14:39:33.468Z,18.19
2018-09-22T14:42:02.363Z,18.17
2018-09-22T14:44:31.050Z,18.00
2018-09-22T14:46:59.475Z,18.18
2018-09-22T14:49:27.929Z,18.18
2018-09-22T14:51:56.101Z,18.24
2018-09-22T14:54:25.047Z,18.29
2018-09-22T14:56:53.262Z,18.34
2018-09-22T14:59:22.283Z,18.41
2018-09-22T15:01:51.130Z,18.34
2018-09-22T15:04:20.103Z,18.45
2018-09-22T15:06:48.723Z,18.48
2018-09-22T15:09:17.445Z,18.46
2018-09-22T15:11:45.980Z,18.36
2018-09-22T15:14:14.338Z,18.41
2018-09-22T15:16:43.208Z,18.39
2018-09-22T15:19:11.736Z,18.38
2018-09-22T15:21:41.337Z,18.33
2018-09-22T15:24:10.154Z,17.92
2018-09-22T15:26:38.743Z,17.88
2018-09-22T15:29:07.512Z,18.18
2018-09-22T15:31:36.297Z,18.09
2018-09-22T15:34:04.885Z,17.98
2018-09-22T15:36:34.211Z,17.93
2018-09-22T15:39:03.620Z,17.69
2018-09-22T15:41:32.079Z,17.84
2018-09-22T15:44:00.756Z,17.82
2018-09-22T15:46:29.713Z,17.85
2018-09-22T15:48:57.996Z,17.81
2018-09-22T15:51:26.395Z,17.76
2018-09-22T15:53:55.230Z,17.74
2018-09-22T15:56:23.770Z,17.73
2018-09-22T15:58:56.647Z,17.71
2018-09-22T16:01:26.992Z,17.68
2018-09-22T16:03:56.174Z,17.67
2018-09-22T16:06:24.817Z,17.68
2018-09-22T16:08:54.376Z,17.48
2018-09-22T16:11:22.978Z,17.64
2018-09-22T16:13:51.404Z,17.64
2018-09-22T16:16:20.819Z,17.61
2018-09-22T16:18:50.160Z,17.57
2018-09-22T16:21:19.643Z,17.26
2018-09-22T16:23:47.988Z,17.41
2018-09-22T16:26:17.375Z,17.32
2018-09-22T16:28:47.325Z,17.22
2018-09-22T16:31:17.233Z,17.14
2018-09-22T16:33:45.415Z,17.04
2018-09-22T16:36:14.172Z,17.01
2018-09-22T16:38:42.382Z,16.82
2018-09-22T16:41:10.795Z,16.97
2018-09-22T16:43:39.240Z,16.98
2018-09-22T16:46:07.499Z,16.95
2018-09-22T16:48:35.934Z,16.91
2018-09-22T16:51:04.570Z,16.91
2018-09-22T16:53:33.306Z,16.91
2018-09-22T16:56:01.887Z,16.84
2018-09-22T16:58:30.773Z,16.80
2018-09-22T17:00:59.591Z,16.77
2018-09-22T17:03:27.871Z,16.83
2018-09-22T17:05:56.619Z,16.80
2018-09-22T17:08:24.772Z,16.75
2018-09-22T17:10:53.027Z,16.69
2018-09-22T17:13:21.357Z,16.58
2018-09-22T17:15:49.747Z,16.68
2018-09-22T17:18:18.390Z,16.67
2018-09-22T17:20:51.866Z,16.58
2018-09-22T17:23:21.755Z,16.58
2018-09-22T17:25:51.586Z,16.66
2018-09-22T17:28:21.152Z,16.56
2018-09-22T17:30:49.623Z,16.64
2018-09-22T17:33:19.315Z,16.60
2018-09-22T17:35:48.223Z,16.55
2018-09-22T17:38:16.856Z,16.42
2018-09-22T17:40:46.518Z,16.50
2018-09-22T17:43:14.856Z,16.50
2018-09-22T17:45:43.135Z,16.46
2018-09-22T17:48:11.398Z,16.45
2018-09-22T17:50:41.106Z,16.34
2018-09-22T17:53:09.891Z,16.43
2018-09-22T17:55:40.878Z,16.42
2018-09-22T17:58:09.329Z,16.28
2018-09-22T18:00:37.944Z,16.36
2018-09-22T18:03:06.423Z,16.35
2018-09-22T18:05:35.749Z,16.18
2018-09-22T18:08:04.372Z,16.12
2018-09-22T18:10:33.431Z,16.11
2018-09-22T18:13:02.506Z,15.91
2018-09-22T18:15:30.992Z,15.95
2018-09-22T18:17:59.673Z,15.84
2018-09-22T18:20:28.870Z,15.73
2018-09-22T18:22:57.883Z,15.60
2018-09-22T18:25:29.086Z,15.38
2018-09-22T18:27:58.178Z,15.12
2018-09-22T18:30:27.099Z,15.11
2018-09-22T18:32:56.155Z,14.98
2018-09-22T18:35:24.991Z,14.86
2018-09-22T18:37:54.326Z,14.76
2018-09-22T18:40:23.114Z,14.62
2018-09-22T18:42:52.029Z,14.57
2018-09-22T18:45:24.594Z,14.27
2018-09-22T18:47:53.462Z,14.38
2018-09-22T18:50:22.864Z,14.27
2018-09-22T18:52:52.342Z,14.18
2018-09-22T18:55:21.366Z,14.08
2018-09-22T18:57:50.558Z,14.12
2018-09-22T19:00:20.947Z,14.10
2018-09-22T19:02:52.631Z,14.00
2018-09-22T19:05:26.879Z,14.12
2018-09-22T19:07:57.373Z,14.14
2018-09-22T19:10:28.009Z,14.16
2018-09-22T19:12:58.216Z,14.14
2018-09-22T19:15:33.128Z,14.16
2018-09-22T19:18:10.392Z,14.17
2018-09-22T19:20:50.645Z,14.17
2018-09-22T19:23:23.582Z,14.15
2018-09-22T19:25:56.341Z,13.46
2018-09-22T19:28:48.325Z,14.20
2018-09-22T19:31:20.926Z,14.23
2018-09-22T19:33:54.830Z,14.23
2018-09-22T19:37:30.677Z,14.22
2018-09-22T19:40:07.698Z,14.20
2018-09-22T19:42:44.433Z,14.16
2018-09-22T19:45:23.720Z,14.12
2018-09-22T19:47:57.983Z,14.10
2018-09-22T19:50:35.964Z,13.98
2018-09-22T19:53:04.948Z,13.91
2018-09-22T19:55:33.181Z,13.99
2018-09-22T19:58:01.459Z,13.93
2018-09-22T20:00:30.298Z,13.90
2018-09-22T20:02:58.901Z,13.86
2018-09-22T20:05:27.320Z,13.79
2018-09-22T20:07:55.945Z,13.75
2018-09-22T20:10:24.345Z,13.69
2018-09-22T20:12:52.743Z,13.50
2018-09-22T20:15:21.764Z,13.34
2018-09-22T20:17:50.443Z,13.48
2018-09-22T20:20:21.492Z,13.30
2018-09-22T20:22:50.531Z,13.39
2018-09-22T20:25:20.143Z,13.29
2018-09-22T20:27:49.206Z,13.40
2018-09-22T20:30:18.098Z,13.43
2018-09-22T20:32:46.330Z,13.40
2018-09-22T20:35:15.580Z,13.28
2018-09-22T20:37:44.157Z,13.36
2018-09-22T20:40:13.843Z,13.33
2018-09-22T20:42:43.105Z,13.34
2018-09-22T20:45:11.489Z,13.32
2018-09-22T20:47:43.103Z,13.33
2018-09-22T20:50:13.024Z,13.15
2018-09-22T20:52:43.147Z,13.34
2018-09-22T20:55:11.388Z,13.25
2018-09-22T20:57:40.059Z,13.27
2018-09-22T21:00:10.497Z,13.36
2018-09-22T21:02:39.060Z,13.35
2018-09-22T21:05:07.708Z,13.00
2018-09-22T21:07:36.632Z,13.33
2018-09-22T21:10:06.095Z,13.20
2018-09-22T21:12:34.954Z,13.30
2018-09-22T21:15:04.291Z,13.20
2018-09-22T21:17:33.634Z,13.20
2018-09-22T21:20:02.855Z,13.30
2018-09-22T21:22:31.183Z,13.30
2018-09-22T21:24:59.358Z,13.29
2018-09-22T21:27:27.839Z,13.28
2018-09-22T21:29:56.447Z,13.26
2018-09-22T21:32:24.767Z,13.27
2018-09-22T21:34:53.531Z,13.16
2018-09-22T21:37:21.802Z,13.28
2018-09-22T21:39:50.065Z,13.31
2018-09-22T21:42:18.529Z,13.28
2018-09-22T21:44:46.847Z,13.30
2018-09-22T21:47:15.243Z,13.30
2018-09-22T21:49:44.199Z,13.31
2018-09-22T21:52:12.583Z,13.30
2018-09-22T21:54:41.571Z,13.28
2018-09-22T21:57:10.307Z,13.28
2018-09-22T21:59:38.440Z,13.26
2018-09-22T22:02:07.059Z,13.07
2018-09-22T22:04:35.327Z,13.18
2018-09-22T22:07:03.985Z,13.15
2018-09-22T22:09:32.190Z,13.14
2018-09-22T22:12:00.641Z,13.14
2018-09-22T22:14:28.783Z,13.12
2018-09-22T22:16:56.890Z,13.12
2018-09-22T22:19:25.028Z,13.03
2018-09-22T22:21:53.906Z,13.13
2018-09-22T22:24:22.184Z,13.13
2018-09-22T22:26:50.735Z,13.13
2018-09-22T22:29:19.227Z,13.14
2018-09-22T22:31:47.712Z,13.15
2018-09-22T22:34:16.547Z,13.16
2018-09-22T22:36:44.952Z,13.14
2018-09-22T22:39:13.163Z,13.14
2018-09-22T22:41:44.670Z,13.03
2018-09-22T22:44:13.018Z,13.15
2018-09-22T22:46:41.200Z,13.13
2018-09-22T22:49:09.501Z,13.12
2018-09-22T22:51:37.965Z,13.11
2018-09-22T22:54:06.228Z,13.12
2018-09-22T22:56:34.812Z,13.11
2018-09-22T22:59:03.188Z,13.11
2018-09-22T23:01:31.516Z,13.11
2018-09-22T23:03:59.803Z,13.10
2018-09-22T23:06:28.070Z,12.91
2018-09-22T23:08:56.462Z,13.14
2018-09-22T23:11:25.216Z,13.14
2018-09-22T23:13:53.464Z,13.12
2018-09-22T23:16:21.762Z,13.10
2018-09-22T23:18:50.200Z,13.09
2018-09-22T23:21:18.383Z,13.11
2018-09-22T23:23:46.524Z,13.13
2018-09-22T23:26:14.984Z,13.02
2018-09-22T23:28:43.167Z,13.14
2018-09-22T23:31:11.720Z,13.14
2018-09-22T23:33:40.567Z,13.14
2018-09-22T23:36:08.791Z,13.14
2018-09-22T23:38:36.933Z,13.12
2018-09-22T23:41:06.418Z,13.13
2018-09-22T23:43:35.365Z,13.13
2018-09-22T23:46:03.795Z,13.15
2018-09-22T23:48:32.577Z,13.13
2018-09-22T23:51:01.183Z,13.11
2018-09-22T23:53:29.974Z,13.10
2018-09-22T23:55:58.947Z,13.10
2018-09-22T23:58:27.754Z,13.10
